createdAt,value
2023-02-27T00:00:16.616Z,103264.09
2023-02-27T00:02:48.097Z,103263.19
2023-02-27T00:05:14.944Z,103257.94
2023-02-27T00:07:42.224Z,103264.91
2023-02-27T00:10:10.562Z,103271.03
2023-02-27T00:12:39.070Z,103270.13
2023-02-27T00:15:06.530Z,103271.84
2023-02-27T00:17:33.343Z,103269.22
2023-02-27T00:19:59.896Z,103267.53
2023-02-27T00:22:30.080Z,103268.38
2023-02-27T00:24:56.654Z,103258.75
2023-02-27T00:27:23.299Z,103265.75
2023-02-27T00:29:50.158Z,103258.72
2023-02-27T00:32:16.960Z,103265.75
2023-02-27T00:34:43.848Z,103261.38
2023-02-27T00:37:10.496Z,103243.88
2023-02-27T00:39:37.441Z,103265.78
2023-02-27T00:42:03.985Z,103258.81
2023-02-27T00:44:30.780Z,103263.16
2023-02-27T00:46:57.585Z,103262.22
2023-02-27T00:49:25.587Z,103264.78
2023-02-27T00:51:52.575Z,103263.00
2023-02-27T00:54:19.481Z,103260.38
2023-02-27T00:56:46.191Z,103262.13
2023-02-27T00:59:12.957Z,103262.19
2023-02-27T01:01:39.994Z,103262.19
2023-02-27T01:04:08.147Z,103265.66
2023-02-27T01:06:34.690Z,103264.75
2023-02-27T01:09:01.325Z,103264.81
2023-02-27T01:11:28.266Z,103258.72
2023-02-27T01:13:54.935Z,103249.09
2023-02-27T01:16:21.685Z,103260.53
2023-02-27T01:18:48.767Z,103256.16
2023-02-27T01:21:15.477Z,103255.25
2023-02-27T01:23:42.058Z,103253.56
2023-02-27T01:26:08.879Z,103247.38
2023-02-27T01:28:35.369Z,103249.03
2023-02-27T01:31:02.004Z,103249.97
2023-02-27T01:33:29.137Z,103248.19
2023-02-27T01:35:55.657Z,103248.16
2023-02-27T01:38:22.206Z,103237.66
2023-02-27T01:40:48.866Z,103225.41
2023-02-27T01:43:18.401Z,103236.72
2023-02-27T01:45:49.403Z,103226.22
2023-02-27T01:48:38.927Z,103238.44
2023-02-27T01:51:11.466Z,103231.41
2023-02-27T01:53:40.142Z,103234.81
2023-02-27T01:56:14.462Z,103234.78
2023-02-27T01:58:43.468Z,103239.91
2023-02-27T02:01:10.110Z,103244.22
2023-02-27T02:03:50.823Z,103244.19
2023-02-27T02:06:20.481Z,103253.72
2023-02-27T02:08:50.093Z,103246.69
2023-02-27T02:11:18.966Z,103244.97
2023-02-27T02:13:49.911Z,103251.03
2023-02-27T02:16:34.861Z,103250.22
2023-02-27T02:19:15.348Z,103254.56
2023-02-27T02:22:37.490Z,103248.41
2023-02-27T02:25:21.061Z,103250.19
2023-02-27T02:27:53.640Z,103252.78
2023-02-27T02:30:58.198Z,103248.44
2023-02-27T02:34:04.235Z,103255.28
2023-02-27T02:36:57.062Z,103262.22
2023-02-27T02:39:56.250Z,103268.25
2023-02-27T02:42:31.489Z,103264.69
2023-02-27T02:45:12.290Z,103259.44
2023-02-27T02:47:57.392Z,103264.69
2023-02-27T02:50:36.587Z,103256.75
2023-02-27T02:53:36.040Z,103256.88
2023-02-27T02:56:10.772Z,103262.06
2023-02-27T02:58:59.762Z,103250.69
2023-02-27T03:02:06.719Z,103255.88
2023-02-27T03:04:55.889Z,103251.44
2023-02-27T03:07:30.257Z,103255.75
2023-02-27T03:10:08.331Z,103255.75
2023-02-27T03:12:39.449Z,103256.56
2023-02-27T03:15:27.097Z,103255.63
2023-02-27T03:18:18.700Z,103261.72
2023-02-27T03:20:52.029Z,103257.31
2023-02-27T03:23:45.752Z,103259.06
2023-02-27T03:26:16.897Z,103253.78
2023-02-27T03:28:55.368Z,103258.00
2023-02-27T03:31:33.821Z,103253.41
2023-02-27T03:34:11.280Z,103241.94
2023-02-27T03:36:49.813Z,103258.41
2023-02-27T03:39:31.105Z,103260.03
2023-02-27T03:42:06.720Z,103258.22
2023-02-27T03:44:47.200Z,103252.00
2023-02-27T03:47:13.824Z,103251.03
2023-02-27T03:49:40.612Z,103247.44
2023-02-27T03:52:07.580Z,103252.59
2023-02-27T03:54:40.046Z,103260.34
2023-02-27T03:57:08.788Z,103243.63
2023-02-27T03:59:37.719Z,103257.59
2023-02-27T04:02:04.652Z,103262.88
2023-02-27T04:04:32.651Z,103262.88
2023-02-27T04:07:34.642Z,103264.56
2023-02-27T04:10:26.047Z,103271.47
2023-02-27T04:13:37.994Z,103274.13
2023-02-27T04:16:15.902Z,103277.66
2023-02-27T04:18:53.360Z,103282.97
2023-02-27T04:21:43.024Z,103275.97
2023-02-27T04:24:24.971Z,103289.75
2023-02-27T04:27:04.497Z,103289.66
2023-02-27T04:29:55.031Z,103285.28
2023-02-27T04:32:49.848Z,103287.81
2023-02-27T04:35:47.508Z,103301.69
2023-02-27T04:38:23.041Z,103290.34
2023-02-27T04:41:16.906Z,103297.31
2023-02-27T04:43:47.780Z,103294.63
2023-02-27T04:46:17.569Z,103296.50
2023-02-27T04:49:03.059Z,103289.47
2023-02-27T04:51:39.222Z,103300.91
2023-02-27T04:54:16.582Z,103288.03
2023-02-27T04:56:50.193Z,103287.28
2023-02-27T04:59:22.125Z,103296.25
2023-02-27T05:02:06.838Z,103292.97
2023-02-27T05:04:38.614Z,103296.47
2023-02-27T05:07:10.131Z,103305.38
2023-02-27T05:09:47.195Z,103300.28
2023-02-27T05:12:22.739Z,103307.50
2023-02-27T05:14:56.318Z,103300.66
2023-02-27T05:17:31.403Z,103315.66
2023-02-27T05:19:59.720Z,103315.78
2023-02-27T05:23:10.139Z,103305.38
2023-02-27T05:26:12.056Z,103310.66
2023-02-27T05:28:59.247Z,103306.22
2023-02-27T05:31:52.973Z,103313.44
2023-02-27T05:34:55.375Z,103311.13
2023-02-27T05:37:29.210Z,103313.91
2023-02-27T05:39:56.486Z,103301.84
2023-02-27T05:42:30.963Z,103315.91
2023-02-27T05:45:07.326Z,103313.31
2023-02-27T05:47:39.765Z,103296.00
2023-02-27T05:50:14.482Z,103307.41
2023-02-27T05:52:43.307Z,103309.22
2023-02-27T05:55:24.771Z,103308.41
2023-02-27T05:57:56.784Z,103305.75
2023-02-27T06:00:33.421Z,103313.59
2023-02-27T06:03:00.056Z,103303.16
2023-02-27T06:05:28.228Z,103319.03
2023-02-27T06:07:56.719Z,103325.19
2023-02-27T06:10:26.977Z,103325.16
2023-02-27T06:12:53.508Z,103328.66
2023-02-27T06:15:20.457Z,103332.19
2023-02-27T06:17:47.049Z,103328.69
2023-02-27T06:20:14.081Z,103332.22
2023-02-27T06:22:42.158Z,103334.03
2023-02-27T06:25:09.383Z,103338.41
2023-02-27T06:27:37.489Z,103348.91
2023-02-27T06:30:08.624Z,103339.34
2023-02-27T06:32:35.286Z,103348.97
2023-02-27T06:35:02.013Z,103347.22
2023-02-27T06:37:28.537Z,103351.59
2023-02-27T06:39:55.083Z,103351.59
2023-02-27T06:42:22.940Z,103355.97
2023-02-27T06:44:50.099Z,103353.31
2023-02-27T06:47:16.831Z,103352.47
2023-02-27T06:49:43.567Z,103344.56
2023-02-27T06:52:10.099Z,103348.06
2023-02-27T06:54:36.925Z,103345.44
2023-02-27T06:57:04.007Z,103348.88
2023-02-27T06:59:30.613Z,103356.75
2023-02-27T07:01:59.105Z,103348.81
2023-02-27T07:04:25.941Z,103355.78
2023-02-27T07:07:34.790Z,103351.41
2023-02-27T07:09:39.562Z,103364.53
2023-02-27T07:12:06.848Z,103371.50
2023-02-27T07:14:34.212Z,103369.78
2023-02-27T07:17:04.347Z,103375.88
2023-02-27T07:19:33.614Z,103368.88
2023-02-27T07:22:00.210Z,103370.63
2023-02-27T07:24:26.820Z,103368.00
2023-02-27T07:26:54.236Z,103368.84
2023-02-27T07:29:20.763Z,103380.22
2023-02-27T07:31:47.318Z,103377.56
2023-02-27T07:34:15.668Z,103372.34
2023-02-27T07:36:42.656Z,103376.69
2023-02-27T07:39:10.963Z,103381.91
2023-02-27T07:41:37.439Z,103381.88
2023-02-27T07:44:07.343Z,103391.47
2023-02-27T07:46:34.057Z,103389.69
2023-02-27T07:49:00.915Z,103385.28
2023-02-27T07:51:27.614Z,103390.53
2023-02-27T07:53:57.184Z,103397.56
2023-02-27T07:56:26.732Z,103398.44
2023-02-27T07:58:53.819Z,103393.19
2023-02-27T08:01:20.451Z,103400.19
2023-02-27T08:03:47.141Z,103405.44
2023-02-27T08:06:14.167Z,103407.22
2023-02-27T08:08:40.900Z,103410.75
2023-02-27T08:11:07.443Z,103403.72
2023-02-27T08:16:21.512Z,103411.59
2023-02-27T08:18:48.310Z,103417.72
2023-02-27T08:21:15.979Z,103423.88
2023-02-27T08:23:42.786Z,103411.75
2023-02-27T08:26:09.338Z,103395.09
2023-02-27T08:28:36.137Z,103409.13
2023-02-27T08:31:02.713Z,103414.41
2023-02-27T08:33:29.533Z,103424.00
2023-02-27T08:35:57.190Z,103418.84
2023-02-27T08:38:26.064Z,103423.22
2023-02-27T08:40:55.903Z,103429.38
2023-02-27T08:43:23.319Z,103423.22
2023-02-27T08:45:52.578Z,103425.84
2023-02-27T08:48:19.131Z,103432.84
2023-02-27T08:50:46.765Z,103436.38
2023-02-27T08:53:13.911Z,103436.38
2023-02-27T08:55:40.537Z,103439.00
2023-02-27T08:58:07.314Z,103432.91
2023-02-27T09:00:34.355Z,103439.94
2023-02-27T09:03:01.451Z,103434.66
2023-02-27T09:05:29.170Z,103447.81
2023-02-27T09:07:56.026Z,103445.22
2023-02-27T09:10:23.014Z,103448.72
2023-02-27T09:12:49.778Z,103437.34
2023-02-27T09:15:16.502Z,103450.47
2023-02-27T09:17:43.461Z,103449.63
2023-02-27T09:20:11.622Z,103460.13
2023-02-27T09:22:38.916Z,103458.38
2023-02-27T09:25:06.507Z,103446.13
2023-02-27T09:27:33.836Z,103455.78
2023-02-27T09:30:02.783Z,103467.13
2023-02-27T09:32:29.387Z,103461.88
2023-02-27T09:34:56.110Z,103461.03
2023-02-27T09:37:24.955Z,103455.78
2023-02-27T09:39:52.118Z,103459.34
2023-02-27T09:42:23.248Z,103454.09
2023-02-27T09:44:54.009Z,103457.59
2023-02-27T09:47:29.060Z,103464.63
2023-02-27T09:50:24.275Z,103459.34
2023-02-27T09:52:50.908Z,103462.00
2023-02-27T09:55:22.455Z,103462.91
2023-02-27T09:58:08.373Z,103465.53
2023-02-27T10:00:47.242Z,103462.03
2023-02-27T10:03:44.968Z,103458.53
2023-02-27T10:06:28.163Z,103464.66
2023-02-27T10:09:10.472Z,103476.03
2023-02-27T10:11:51.792Z,103471.66
2023-02-27T10:14:50.228Z,103467.28
2023-02-27T10:17:29.082Z,103459.41
2023-02-27T10:19:56.996Z,103476.03
2023-02-27T10:22:33.593Z,103475.16
2023-02-27T10:25:24.823Z,103477.78
2023-02-27T10:28:05.726Z,103469.06
2023-02-27T10:30:34.890Z,103473.41
2023-02-27T10:33:37.724Z,103475.16
2023-02-27T10:36:20.578Z,103469.91
2023-02-27T10:38:57.019Z,103473.41
2023-02-27T10:41:24.486Z,103472.53
2023-02-27T10:44:00.465Z,103472.53
2023-02-27T10:46:32.858Z,103464.66
2023-02-27T10:49:11.891Z,103460.28
2023-02-27T10:51:38.719Z,103467.28
2023-02-27T10:54:23.746Z,103451.53
2023-02-27T10:57:00.804Z,103456.78
2023-02-27T10:59:31.924Z,103455.94
2023-02-27T11:02:06.064Z,103442.78
2023-02-27T11:04:36.910Z,103442.78
2023-02-27T11:07:09.550Z,103441.91
2023-02-27T11:09:37.157Z,103444.53
2023-02-27T11:12:28.662Z,103443.66
2023-02-27T11:14:57.993Z,103427.88
2023-02-27T11:17:29.000Z,103427.88
2023-02-27T11:19:56.886Z,103428.72
2023-02-27T11:22:26.043Z,103426.06
2023-02-27T11:25:29.629Z,103418.19
2023-02-27T11:28:23.972Z,103428.66
2023-02-27T11:31:07.765Z,103420.78
2023-02-27T11:33:53.242Z,103420.78
2023-02-27T11:36:23.565Z,103419.94
2023-02-27T11:38:55.570Z,103427.84
2023-02-27T11:41:34.331Z,103421.69
2023-02-27T11:44:03.401Z,103414.69
2023-02-27T11:46:46.481Z,103412.06
2023-02-27T11:49:42.047Z,103411.22
2023-02-27T11:52:29.952Z,103407.75
2023-02-27T11:55:03.669Z,103413.00
2023-02-27T11:57:34.977Z,103419.13
2023-02-27T12:00:23.676Z,103411.25
2023-02-27T12:03:03.881Z,103409.50
2023-02-27T12:05:36.615Z,103401.63
2023-02-27T12:08:11.938Z,103401.59
2023-02-27T12:11:13.600Z,103399.84
2023-02-27T12:13:43.972Z,103389.34
2023-02-27T12:16:27.514Z,103396.38
2023-02-27T12:19:01.827Z,103402.50
2023-02-27T12:21:38.151Z,103400.75
2023-02-27T12:24:13.650Z,103398.97
2023-02-27T12:29:43.994Z,103402.47
2023-02-27T12:32:34.583Z,103400.72
2023-02-27T12:35:17.394Z,103404.22
2023-02-27T12:37:44.125Z,103407.72
2023-02-27T12:40:15.701Z,103401.53
2023-02-27T12:42:48.744Z,103398.91
2023-02-27T12:45:53.772Z,103398.00
2023-02-27T12:48:58.540Z,103397.16
2023-02-27T12:51:31.133Z,103391.91
2023-02-27T12:54:14.726Z,103391.03
2023-02-27T12:57:06.293Z,103397.13
2023-02-27T12:59:39.150Z,103398.91
2023-02-27T13:02:38.013Z,103400.66
2023-02-27T13:05:35.843Z,103396.22
2023-02-27T13:08:43.518Z,103389.28
2023-02-27T13:11:22.950Z,103388.38
2023-02-27T13:14:01.312Z,103384.00
2023-02-27T13:16:28.040Z,103382.19
2023-02-27T13:18:56.540Z,103375.09
2023-02-27T13:21:40.124Z,103370.72
2023-02-27T13:24:23.595Z,103380.34
2023-02-27T13:26:53.553Z,103385.63
2023-02-27T13:29:23.391Z,103377.72
2023-02-27T13:32:07.742Z,103364.50
2023-02-27T13:34:40.698Z,103356.59
2023-02-27T13:37:09.342Z,103365.34
2023-02-27T13:39:40.430Z,103368.88
2023-02-27T13:42:25.625Z,103365.31
2023-02-27T13:44:56.705Z,103363.53
2023-02-27T13:47:29.127Z,103364.41
2023-02-27T13:50:03.844Z,103367.88
2023-02-27T13:52:30.536Z,103353.75
2023-02-27T13:55:06.233Z,103354.59
2023-02-27T13:57:38.809Z,103353.72
2023-02-27T14:00:20.196Z,103354.66
2023-02-27T14:03:00.329Z,103366.09
2023-02-27T14:05:40.725Z,103363.47
2023-02-27T14:08:39.069Z,103362.38
2023-02-27T14:11:23.326Z,103347.31
2023-02-27T14:13:50.207Z,103354.38
2023-02-27T14:16:42.012Z,103356.13
2023-02-27T14:19:11.865Z,103359.75
2023-02-27T14:21:59.450Z,103354.53
2023-02-27T14:24:26.465Z,103356.38
2023-02-27T14:26:59.943Z,103356.41
2023-02-27T14:29:36.085Z,103366.06
2023-02-27T14:32:08.207Z,103358.13
2023-02-27T14:34:36.535Z,103354.56
2023-02-27T14:37:13.837Z,103350.19
2023-02-27T14:39:41.642Z,103349.28
2023-02-27T14:42:22.754Z,103358.00
2023-02-27T14:44:52.101Z,103355.38
2023-02-27T14:47:25.395Z,103356.22
2023-02-27T14:49:57.090Z,103350.00
2023-02-27T14:52:27.539Z,103351.75
2023-02-27T14:55:16.559Z,103348.19
2023-02-27T14:57:55.600Z,103354.34
2023-02-27T15:00:34.356Z,103356.94
2023-02-27T15:03:10.887Z,103348.19
2023-02-27T15:05:40.454Z,103335.88
2023-02-27T15:08:13.652Z,103339.34
2023-02-27T15:10:42.969Z,103349.03
2023-02-27T15:13:27.442Z,103342.88
2023-02-27T15:16:25.614Z,103328.84
2023-02-27T15:18:59.043Z,103336.78
2023-02-27T15:21:31.430Z,103328.00
2023-02-27T15:24:03.929Z,103335.84
2023-02-27T15:26:35.302Z,103333.25
2023-02-27T15:29:05.335Z,103344.66
2023-02-27T15:31:32.422Z,103334.13
2023-02-27T15:34:01.701Z,103339.38
2023-02-27T15:36:32.820Z,103339.34
2023-02-27T15:39:16.357Z,103340.22
2023-02-27T15:41:51.621Z,103351.66
2023-02-27T15:44:23.923Z,103346.47
2023-02-27T15:46:51.160Z,103338.59
2023-02-27T15:49:20.629Z,103343.84
2023-02-27T15:51:54.424Z,103342.97
2023-02-27T15:54:22.983Z,103358.81
2023-02-27T15:56:49.682Z,103362.31
2023-02-27T15:59:18.150Z,103353.56
2023-02-27T16:01:45.845Z,103351.81
2023-02-27T16:04:24.003Z,103348.31
2023-02-27T16:06:59.376Z,103357.06
2023-02-27T16:09:33.709Z,103354.47
2023-02-27T16:12:23.961Z,103361.53
2023-02-27T16:14:56.071Z,103361.53
2023-02-27T16:17:25.343Z,103358.88
2023-02-27T16:19:52.664Z,103356.28
2023-02-27T16:22:21.886Z,103359.81
2023-02-27T16:24:49.772Z,103358.94
2023-02-27T16:27:29.703Z,103366.75
2023-02-27T16:30:02.500Z,103368.50
2023-02-27T16:32:34.646Z,103377.31
2023-02-27T16:35:04.303Z,103380.91
2023-02-27T16:37:36.911Z,103366.88
2023-02-27T16:40:24.912Z,103366.88
2023-02-27T16:42:52.864Z,103367.72
2023-02-27T16:45:24.852Z,103374.81
2023-02-27T16:47:54.304Z,103383.66
2023-02-27T16:50:41.122Z,103375.75
2023-02-27T16:53:08.964Z,103372.25
2023-02-27T16:55:40.276Z,103381.00
2023-02-27T16:58:07.272Z,103381.94
2023-02-27T17:00:34.172Z,103382.81
2023-02-27T17:03:01.230Z,103381.06
2023-02-27T17:05:27.756Z,103376.69
2023-02-27T17:07:54.272Z,103376.72
2023-02-27T17:10:24.536Z,103370.56
2023-02-27T17:12:51.801Z,103374.16
2023-02-27T17:15:19.241Z,103367.09
2023-02-27T17:17:46.034Z,103363.63
2023-02-27T17:20:14.355Z,103375.94
2023-02-27T17:22:43.011Z,103372.47
2023-02-27T17:25:10.691Z,103364.59
2023-02-27T17:27:37.374Z,103368.16
2023-02-27T17:30:05.415Z,103371.66
2023-02-27T17:32:34.748Z,103369.00
2023-02-27T17:35:01.297Z,103371.63
2023-02-27T17:37:27.880Z,103384.81
2023-02-27T17:39:54.790Z,103376.03
2023-02-27T17:42:22.847Z,103375.19
2023-02-27T17:44:49.383Z,103382.19
2023-02-27T17:47:16.077Z,103383.06
2023-02-27T17:49:44.142Z,103385.72
2023-02-27T17:52:12.785Z,103378.69
2023-02-27T17:54:39.344Z,103372.59
2023-02-27T17:57:06.865Z,103377.84
2023-02-27T17:59:33.855Z,103388.38
2023-02-27T18:02:00.428Z,103376.97
2023-02-27T18:04:26.989Z,103390.13
2023-02-27T18:06:54.038Z,103393.63
2023-02-27T18:09:20.855Z,103388.38
2023-02-27T18:11:47.600Z,103380.50
2023-02-27T18:14:14.164Z,103386.66
2023-02-27T18:16:42.596Z,103391.88
2023-02-27T18:19:09.542Z,103394.53
2023-02-27T18:21:36.586Z,103394.50
2023-02-27T18:24:03.153Z,103387.53
2023-02-27T18:26:31.911Z,103402.44
2023-02-27T18:29:06.787Z,103407.69
2023-02-27T18:31:37.447Z,103411.22
2023-02-27T18:34:05.055Z,103416.47
2023-02-27T18:36:32.643Z,103405.97
2023-02-27T18:38:59.803Z,103411.22
2023-02-27T18:41:27.515Z,103408.59
2023-02-27T18:43:54.134Z,103415.59
2023-02-27T18:46:20.968Z,103418.22
2023-02-27T18:48:47.513Z,103426.97
2023-02-27T18:51:15.822Z,103423.47
2023-02-27T18:53:46.347Z,103437.50
2023-02-27T18:56:14.900Z,103431.34
2023-02-27T18:58:41.711Z,103430.50
2023-02-27T19:01:08.726Z,103414.72
2023-02-27T19:03:36.320Z,103441.00
2023-02-27T19:06:05.137Z,103424.38
2023-02-27T19:08:32.059Z,103427.88
2023-02-27T19:10:59.581Z,103442.78
2023-02-27T19:13:27.693Z,103437.53
2023-02-27T19:15:55.697Z,103438.41
2023-02-27T19:18:23.840Z,103433.16
2023-02-27T19:20:50.691Z,103432.28
2023-02-27T19:23:17.335Z,103428.78
2023-02-27T19:25:45.940Z,103429.66
2023-02-27T19:28:14.900Z,103433.16
2023-02-27T19:30:42.538Z,103433.16
2023-02-27T19:33:09.146Z,103425.28
2023-02-27T19:35:38.772Z,103431.41
2023-02-27T19:38:05.277Z,103441.06
2023-02-27T19:40:32.098Z,103444.56
2023-02-27T19:42:58.704Z,103437.56
2023-02-27T19:45:25.389Z,103448.94
2023-02-27T19:47:53.374Z,103449.78
2023-02-27T19:50:20.212Z,103448.91
2023-02-27T19:52:47.275Z,103450.66
2023-02-27T19:55:14.044Z,103445.41
2023-02-27T19:57:41.054Z,103449.78
2023-02-27T20:00:09.477Z,103460.28
2023-02-27T20:02:36.285Z,103449.78
2023-02-27T20:05:03.412Z,103448.91
2023-02-27T20:07:30.366Z,103442.75
2023-02-27T20:09:56.968Z,103449.78
2023-02-27T20:12:23.781Z,103455.00
2023-02-27T20:14:50.723Z,103442.75
2023-02-27T20:17:17.432Z,103434.88
2023-02-27T20:19:44.028Z,103451.50
2023-02-27T20:22:13.493Z,103456.75
2023-02-27T20:24:40.353Z,103458.50
2023-02-27T20:27:07.354Z,103463.75
2023-02-27T20:29:34.105Z,103456.75
2023-02-27T20:32:01.170Z,103460.25
2023-02-27T20:34:28.029Z,103461.13
2023-02-27T20:36:56.060Z,103456.75
2023-02-27T20:39:23.429Z,103451.50
2023-02-27T20:41:50.767Z,103450.63
2023-02-27T20:44:17.360Z,103441.88
2023-02-27T20:46:47.064Z,103449.75
2023-02-27T20:49:15.854Z,103452.34
2023-02-27T20:51:43.499Z,103439.19
2023-02-27T20:54:13.570Z,103448.78
2023-02-27T20:56:42.192Z,103444.44
2023-02-27T20:59:16.457Z,103447.91
2023-02-27T21:01:51.840Z,103448.75
2023-02-27T21:04:42.477Z,103453.13
2023-02-27T21:07:14.269Z,103461.00
2023-02-27T21:09:41.637Z,103451.34
2023-02-27T21:12:09.341Z,103464.50
2023-02-27T21:14:36.460Z,103450.50
2023-02-27T21:17:04.376Z,103446.97
2023-02-27T21:19:31.235Z,103453.97
2023-02-27T21:21:57.704Z,103453.06
2023-02-27T21:24:24.512Z,103451.31
2023-02-27T21:26:51.148Z,103453.94
2023-02-27T21:29:21.493Z,103459.19
2023-02-27T21:31:50.548Z,103461.78
2023-02-27T21:34:25.499Z,103434.69
2023-02-27T21:36:52.608Z,103439.03
2023-02-27T21:39:25.820Z,103448.63
2023-02-27T21:41:52.959Z,103456.47
2023-02-27T21:44:25.096Z,103457.31
2023-02-27T21:46:53.552Z,103452.84
2023-02-27T21:49:23.474Z,103457.19
2023-02-27T21:51:51.062Z,103458.00
2023-02-27T21:54:22.625Z,103452.69
2023-02-27T21:56:50.099Z,103466.69
2023-02-27T21:59:19.529Z,103463.19
2023-02-27T22:01:48.094Z,103475.38
2023-02-27T22:04:16.104Z,103470.09
2023-02-27T22:06:43.062Z,103465.69
2023-02-27T22:09:09.887Z,103469.25
2023-02-27T22:11:36.758Z,103478.00
2023-02-27T22:14:05.192Z,103471.97
2023-02-27T22:16:31.791Z,103473.69
2023-02-27T22:18:58.592Z,103471.09
2023-02-27T22:21:27.625Z,103467.59
2023-02-27T22:23:56.553Z,103474.59
2023-02-27T22:26:24.302Z,103456.28
2023-02-27T22:28:52.450Z,103473.78
2023-02-27T22:31:25.332Z,103475.50
2023-02-27T22:33:54.053Z,103478.16
2023-02-27T22:36:24.708Z,103471.16
2023-02-27T22:38:52.838Z,103476.50
2023-02-27T22:41:25.336Z,103467.78
2023-02-27T22:43:52.366Z,103473.03
2023-02-27T22:46:34.314Z,103474.78
2023-02-27T22:49:16.149Z,103480.03
2023-02-27T22:51:42.812Z,103465.16
2023-02-27T22:54:11.571Z,103463.44
2023-02-27T22:56:38.378Z,103478.38
2023-02-27T22:59:05.795Z,103473.09
2023-02-27T23:01:34.405Z,103473.13
2023-02-27T23:04:05.694Z,103468.78
2023-02-27T23:06:35.548Z,103472.25
2023-02-27T23:09:04.450Z,103471.38
2023-02-27T23:11:31.261Z,103484.50
2023-02-27T23:13:59.556Z,103475.72
2023-02-27T23:16:26.158Z,103487.13
2023-02-27T23:18:58.088Z,103488.91
2023-02-27T23:21:30.091Z,103481.94
2023-02-27T23:23:59.934Z,103486.31
2023-02-27T23:26:30.685Z,103481.94
2023-02-27T23:28:57.769Z,103486.28
2023-02-27T23:31:24.729Z,103475.75
2023-02-27T23:33:51.388Z,103482.75
2023-02-27T23:36:18.090Z,103479.28
2023-02-27T23:38:46.717Z,103489.81
2023-02-27T23:41:16.789Z,103493.31
2023-02-27T23:43:44.838Z,103491.56
2023-02-27T23:46:14.153Z,103490.66
2023-02-27T23:48:41.523Z,103499.41
2023-02-27T23:51:09.617Z,103497.66
2023-02-27T23:53:38.389Z,103502.06
2023-02-27T23:56:17.026Z,103493.34
2023-02-27T23:58:46.050Z,103503.81
